Terminal Aerodrome Forecast
Issued by NWS

Home | Current Version | Previous Version | Text Only | Print | Product List | Glossary On
Versions: 1 2 3 4 5 6 7 8 9 10 11 12 13 14 15 16 17 18 19 20 21 22 23 24 25 26 27 28 29 30
000
FTUS45 KGJT 301735
TAFRIL
TAF
KRIL 301735Z 3018/3118 21005KT P6SM SCT150
     FM301900 26015G22KT P6SM FEW100 BKN120
     FM310100 26008KT P6SM BKN120
     FM310600 16003KT P6SM SCT150 SCT200=

USA.gov is the U.S. government's official web portal to all federal, state and local government web resources and services.